Time;durP1;ratioP1;P1;durP2;ratioP2;P2;SDS_P1;SDS_P2;PMS_P1;PMS_P2;Temp;Humidity;BMP_temperature;BMP_pressure;BME280_temperature;BME280_humidity;BME280_pressure;Samples;Min_cycle;Max_cycle;Signal;HPM_P1;HPM_P2
2021/01/22 00:00:36;;;;;;;44.87;22.10;;;;;;;3.30;64.26;94971.75;5095511;28;20196;-75
2021/01/22 00:03:02;;;;;;;49.57;22.50;;;;;;;3.21;65.02;94986.72;5095555;28;20170;-76
2021/01/22 00:05:27;;;;;;;45.97;20.70;;;;;;;3.32;64.85;94974.88;5095285;28;20243;-73
2021/01/22 00:07:53;;;;;;;47.70;21.60;;;;;;;3.23;64.52;94981.94;5095317;28;20162;-78
2021/01/22 00:10:18;;;;;;;40.93;21.53;;;;;;;3.48;64.11;94982.47;5095358;28;20686;-75
2021/01/22 00:12:44;;;;;;;45.23;21.53;;;;;;;3.31;64.66;94975.97;5095096;28;20174;-77
2021/01/22 00:15:10;;;;;;;41.33;20.93;;;;;;;3.17;65.24;94996.31;5095248;28;20584;-76
2021/01/22 00:17:35;;;;;;;41.30;19.93;;;;;;;3.33;65.21;94959.84;5095008;28;20174;-74
2021/01/22 00:20:01;;;;;;;40.33;19.80;;;;;;;3.14;65.51;94981.06;5076678;28;20186;-75
2021/01/22 00:22:26;;;;;;;45.13;21.30;;;;;;;2.98;66.07;94967.41;5094806;28;20204;-74
2021/01/22 00:24:52;;;;;;;44.53;21.47;;;;;;;3.24;64.86;94951.81;5095014;28;20206;-74
2021/01/22 00:27:17;;;;;;;38.57;20.67;;;;;;;3.26;65.44;94956.81;5094714;28;20171;-74
2021/01/22 00:29:43;;;;;;;48.30;21.73;;;;;;;3.28;65.37;94971.28;5094717;28;20229;-74
2021/01/22 00:32:08;;;;;;;46.83;21.37;;;;;;;3.03;65.97;94955.94;5094892;28;20283;-74
2021/01/22 00:34:34;;;;;;;43.43;20.83;;;;;;;3.06;65.75;94981.75;5094763;28;20712;-75
2021/01/22 00:36:59;;;;;;;37.10;18.37;;;;;;;3.27;65.28;94968.94;5094612;28;20674;-74
2021/01/22 00:39:25;;;;;;;40.67;19.63;;;;;;;2.91;65.83;94967.00;5094471;28;20219;-75
2021/01/22 00:41:50;;;;;;;37.90;18.00;;;;;;;3.40;64.63;94974.16;5094698;28;20170;-73
2021/01/22 00:44:16;;;;;;;41.93;19.70;;;;;;;3.07;65.34;94975.41;5094507;28;20251;-73
2021/01/22 00:46:41;;;;;;;35.53;17.50;;;;;;;3.34;65.06;94983.28;5094449;28;20174;-75
2021/01/22 00:49:07;;;;;;;33.50;16.73;;;;;;;3.69;64.32;94973.78;5094279;28;20205;-74
2021/01/22 00:51:33;;;;;;;36.60;17.63;;;;;;;3.51;64.36;94981.88;5094515;28;20167;-74
2021/01/22 00:53:58;;;;;;;36.65;17.48;;;;;;;3.39;64.89;94956.00;5094225;28;20177;-75
2021/01/22 00:56:24;;;;;;;32.00;17.20;;;;;;;3.73;64.28;94966.06;5094512;28;20174;-74
2021/01/22 00:58:49;;;;;;;38.37;16.87;;;;;;;3.43;64.49;94989.44;5093677;28;20170;-74
2021/01/22 01:01:15;;;;;;;40.07;19.40;;;;;;;3.00;65.50;94956.56;5093994;28;20201;-73
2021/01/22 01:03:40;;;;;;;36.33;18.43;;;;;;;2.97;65.64;94965.03;5094345;28;20202;-74
2021/01/22 01:06:06;;;;;;;42.93;19.33;;;;;;;3.24;65.20;94957.09;5076052;28;20196;-74
2021/01/22 01:08:31;;;;;;;36.87;17.90;;;;;;;3.05;66.18;94961.72;5094351;28;20170;-74
2021/01/22 01:10:57;;;;;;;36.53;18.47;;;;;;;3.08;66.52;94945.28;5093957;28;20732;-75
2021/01/22 01:13:22;;;;;;;39.40;17.33;;;;;;;3.53;64.81;94950.66;5094112;28;20181;-76
2021/01/22 01:15:48;;;;;;;39.27;17.87;;;;;;;3.41;64.76;94940.63;5093745;28;20173;-73
2021/01/22 01:18:13;;;;;;;37.80;17.30;;;;;;;3.43;64.45;94934.00;5093884;28;20177;-75
2021/01/22 01:20:39;;;;;;;29.83;14.43;;;;;;;3.38;65.31;94944.66;5093938;28;20658;-75
2021/01/22 01:23:10;;;;;;;34.03;15.97;;;;;;;3.48;64.45;94929.66;5093720;28;20167;-75
2021/01/22 01:25:36;;;;;;;31.63;17.75;;;;;;;3.52;64.31;94944.63;5093852;28;20659;-74
2021/01/22 01:28:01;;;;;;;29.93;16.80;;;;;;;3.18;65.20;94939.81;5093522;28;20185;-73
2021/01/22 01:30:27;;;;;;;36.63;16.13;;;;;;;3.45;64.86;94944.25;5093624;28;20208;-75
2021/01/22 01:32:52;;;;;;;26.03;14.57;;;;;;;3.54;64.75;94939.84;5093418;28;20171;-75
2021/01/22 01:35:18;;;;;;;33.53;15.10;;;;;;;3.43;64.39;94941.13;5093663;28;20162;-73
2021/01/22 01:37:43;;;;;;;32.07;15.77;;;;;;;3.62;63.45;94917.22;5093285;28;20693;-74
2021/01/22 01:40:09;;;;;;;28.30;14.83;;;;;;;3.89;63.61;94913.66;5093502;28;20645;-74
2021/01/22 01:42:35;;;;;;;29.60;15.57;;;;;;;3.92;63.31;94921.75;5093326;28;20182;-75
2021/01/22 01:45:00;;;;;;;30.97;14.30;;;;;;;3.85;63.70;94917.97;5093441;28;20646;-74
2021/01/22 01:47:26;;;;;;;29.00;16.37;;;;;;;3.43;64.76;94936.63;5093298;28;20178;-73
2021/01/22 01:49:51;;;;;;;25.23;13.20;;;;;;;3.53;64.65;94926.91;5093066;28;20220;-75
2021/01/22 01:52:17;;;;;;;23.97;12.30;;;;;;;3.71;64.31;94918.84;5093341;28;20173;-75
2021/01/22 01:54:42;;;;;;;20.70;11.53;;;;;;;4.05;63.88;94911.44;5093014;28;20170;-75
2021/01/22 01:57:08;;;;;;;21.10;10.33;;;;;;;4.03;64.16;94905.66;5093184;28;20186;-74
2021/01/22 01:59:33;;;;;;;21.90;11.60;;;;;;;4.15;63.87;94904.03;5058253;28;20531;-74
2021/01/22 02:01:59;;;;;;;29.97;11.90;;;;;;;4.30;62.66;94894.91;5075131;28;20203;-74
2021/01/22 02:04:24;;;;;;;26.20;13.13;;;;;;;4.04;63.21;94896.63;5058094;28;20174;-74
2021/01/22 02:06:50;;;;;;;23.57;11.80;;;;;;;3.91;64.86;94920.19;5093326;28;20198;-75
2021/01/22 02:09:15;;;;;;;31.33;12.07;;;;;;;4.19;64.03;94918.19;5091570;28;20690;-74
2021/01/22 02:11:41;;;;;;;19.97;11.43;;;;;;;4.23;63.33;94915.72;5074600;28;20639;-73
2021/01/22 02:14:07;;;;;;;23.02;12.05;;;;;;;4.28;62.54;94896.31;5074756;28;20205;-73
2021/01/22 02:16:33;;;;;;;23.70;12.07;;;;;;;3.76;64.05;94906.56;5074591;28;20202;-74
2021/01/22 02:18:58;;;;;;;23.90;11.90;;;;;;;3.83;63.65;94891.88;5074660;28;20185;-75
2021/01/22 02:21:30;;;;;;;21.83;11.07;;;;;;;3.69;64.45;94901.72;5080440;28;20184;-73
2021/01/22 02:24:11;;;;;;;22.33;11.90;;;;;;;3.71;63.95;94908.28;5095048;28;20173;-73
2021/01/22 02:27:01;;;;;;;22.30;11.70;;;;;;;3.60;64.58;94903.53;5111985;28;20173;-74
2021/01/22 02:29:27;;;;;;;25.58;11.20;;;;;;;3.46;64.69;94895.66;5093590;28;20217;-75
2021/01/22 02:31:53;;;;;;;24.37;11.90;;;;;;;3.62;64.58;94890.81;5088735;28;20174;-74
2021/01/22 02:34:26;;;;;;;22.63;11.95;;;;;;;3.75;64.61;94883.88;5091385;28;20770;-75
2021/01/22 02:37:01;;;;;;;20.33;10.85;;;;;;;3.84;63.98;94888.16;5114084;27;20190;-74
2021/01/22 02:39:29;;;;;;;23.23;11.27;;;;;;;3.66;64.45;94895.19;5131441;27;20213;-74
2021/01/22 02:41:56;;;;;;;24.33;11.10;;;;;;;3.66;64.54;94892.53;5115342;27;20181;-73
2021/01/22 02:44:21;;;;;;;20.48;10.02;;;;;;;3.52;64.93;94901.59;5131752;27;20172;-75
2021/01/22 02:46:47;;;;;;;20.50;9.40;;;;;;;3.26;66.50;94894.28;5114563;27;20680;-77
2021/01/22 02:49:12;;;;;;;19.60;11.13;;;;;;;3.50;65.58;94898.47;5133162;27;20188;-74
2021/01/22 02:51:38;;;;;;;23.60;12.83;;;;;;;3.63;65.89;94890.50;5132828;27;20161;-74
2021/01/22 02:54:04;;;;;;;20.00;11.70;;;;;;;3.52;65.37;94896.31;5133172;27;20177;-74
2021/01/22 02:56:35;;;;;;;25.90;12.40;;;;;;;3.09;66.97;94894.13;5133170;27;20637;-74
2021/01/22 02:59:19;;;;;;;26.27;13.75;;;;;;;3.23;66.72;94884.28;5132798;27;20226;-75
2021/01/22 03:01:58;;;;;;;24.83;13.25;;;;;;;3.54;65.56;94883.63;5132711;27;20180;-75
2021/01/22 03:04:24;;;;;;;23.67;12.95;;;;;;;3.27;66.66;94884.50;5131854;27;20169;-74
2021/01/22 03:06:50;;;;;;;25.17;13.10;;;;;;;2.87;67.73;94892.97;5114372;27;20192;-75
2021/01/22 03:09:19;;;;;;;26.65;13.48;;;;;;;2.75;67.96;94910.34;5131507;27;20215;-75
2021/01/22 03:11:50;;;;;;;29.77;13.80;;;;;;;2.73;67.98;94900.13;5132509;27;20229;-75
2021/01/22 03:14:15;;;;;;;26.15;13.38;;;;;;;3.17;67.11;94882.84;5132674;27;20200;-76
2021/01/22 03:16:41;;;;;;;26.13;14.77;;;;;;;2.96;67.02;94894.91;5131282;27;20204;-74
2021/01/22 03:19:06;;;;;;;30.47;14.77;;;;;;;2.97;67.66;94880.63;5131609;27;20188;-76
2021/01/22 03:21:32;;;;;;;30.30;15.90;;;;;;;3.31;66.26;94890.72;5132087;27;20188;-74
2021/01/22 03:23:57;;;;;;;28.73;14.40;;;;;;;3.28;65.88;94886.03;5132629;27;20172;-74
2021/01/22 03:26:23;;;;;;;27.83;14.97;;;;;;;3.12;65.90;94893.50;5132263;27;20551;-75
2021/01/22 03:28:49;;;;;;;29.03;14.80;;;;;;;2.89;66.39;94890.81;5132451;27;20210;-75
2021/01/22 03:31:14;;;;;;;29.37;16.67;;;;;;;2.91;67.78;94909.75;5132353;27;20197;-74
2021/01/22 03:33:40;;;;;;;26.57;14.07;;;;;;;3.12;66.16;94902.19;5132497;27;20220;-75
2021/01/22 03:36:06;;;;;;;32.27;15.97;;;;;;;3.30;65.62;94911.03;5132600;28;20176;-75
2021/01/22 03:38:32;;;;;;;26.67;15.17;;;;;;;3.15;66.01;94892.94;5132036;27;20722;-74
2021/01/22 03:40:57;;;;;;;33.72;16.25;;;;;;;3.13;65.75;94898.47;5132350;27;20181;-73
2021/01/22 03:43:23;;;;;;;30.73;16.97;;;;;;;2.85;67.16;94892.47;5132556;28;20234;-73
2021/01/22 03:45:48;;;;;;;30.13;16.53;;;;;;;3.29;65.74;94877.81;5132390;28;20172;-74
2021/01/22 03:48:15;;;;;;;32.90;16.97;;;;;;;3.04;66.60;94894.22;5132197;27;20177;-73
2021/01/22 03:50:40;;;;;;;40.08;19.75;;;;;;;2.88;67.92;94901.66;5132315;27;20197;-73
2021/01/22 03:53:06;;;;;;;34.47;17.73;;;;;;;2.81;68.19;94893.38;5132117;28;20180;-74
2021/01/22 03:55:31;;;;;;;33.40;16.13;;;;;;;2.58;68.71;94895.13;5131093;28;20164;-73
2021/01/22 03:57:57;;;;;;;34.73;16.83;;;;;;;2.72;68.41;94900.41;5132234;28;20169;-73
2021/01/22 04:00:22;;;;;;;30.07;15.33;;;;;;;2.51;68.66;94889.47;5131908;28;20164;-74
2021/01/22 04:02:47;;;;;;;36.23;16.60;;;;;;;2.71;68.69;94907.56;5132063;27;20176;-75
2021/01/22 04:05:13;;;;;;;35.57;17.73;;;;;;;2.87;67.42;94887.72;5130350;28;20208;-76
2021/01/22 04:07:38;;;;;;;33.10;17.53;;;;;;;3.06;66.74;94897.34;5132244;28;20649;-75
2021/01/22 04:10:07;;;;;;;30.43;16.10;;;;;;;2.75;67.48;94884.81;5125640;27;20205;-73
2021/01/22 04:12:33;;;;;;;35.13;16.13;;;;;;;2.89;67.75;94892.69;5131248;28;20165;-74
2021/01/22 04:14:59;;;;;;;37.38;19.90;;;;;;;2.95;67.40;94904.69;5126413;28;20508;-74
2021/01/22 04:17:24;;;;;;;42.73;22.70;;;;;;;2.83;67.74;94904.41;5125721;27;20480;-74
2021/01/22 04:19:50;;;;;;;39.97;18.77;;;;;;;3.26;66.76;94899.53;5131578;27;20177;-74
2021/01/22 04:22:15;;;;;;;40.57;18.47;;;;;;;3.28;66.34;94910.56;5131824;28;20573;-73
2021/01/22 04:24:41;;;;;;;37.57;16.93;;;;;;;3.21;66.63;94917.34;5132027;27;20181;-73
2021/01/22 04:27:06;;;;;;;33.67;16.23;;;;;;;3.22;66.38;94903.06;5131379;27;20173;-72
2021/01/22 04:29:32;;;;;;;32.50;18.43;;;;;;;3.28;66.00;94900.03;5131741;27;20300;-74
2021/01/22 04:31:57;;;;;;;32.97;18.57;;;;;;;3.31;65.93;94898.63;5131552;27;20191;-73
2021/01/22 04:34:23;;;;;;;33.70;17.80;;;;;;;3.12;66.15;94904.84;5135618;27;20165;-74
2021/01/22 04:36:49;;;;;;;37.40;17.37;;;;;;;3.37;65.89;94892.97;5135573;27;20658;-74
2021/01/22 04:39:14;;;;;;;39.13;17.90;;;;;;;3.05;66.44;94908.97;5135912;27;20177;-76
2021/01/22 04:41:40;;;;;;;33.17;16.80;;;;;;;2.89;67.96;94903.22;5136359;27;20252;-74
2021/01/22 04:44:05;;;;;;;35.13;17.00;;;;;;;3.17;66.00;94896.03;5117046;27;20199;-74
2021/01/22 04:46:33;;;;;;;32.63;16.57;;;;;;;3.31;66.21;94883.59;5135402;27;20560;-75
2021/01/22 04:48:59;;;;;;;31.63;15.82;;;;;;;3.53;66.00;94880.16;5134048;27;20221;-74
2021/01/22 04:51:24;;;;;;;29.75;16.17;;;;;;;3.51;65.77;94886.84;5134088;27;20656;-72
2021/01/22 04:53:50;;;;;;;33.33;17.13;;;;;;;3.51;65.43;94886.84;5135057;27;20178;-73
2021/01/22 04:56:15;;;;;;;35.03;17.40;;;;;;;3.32;66.36;94892.28;5116954;27;20169;-74
2021/01/22 04:58:42;;;;;;;33.87;16.57;;;;;;;3.38;66.38;94896.38;5133765;27;20670;-74
2021/01/22 05:01:08;;;;;;;31.95;15.25;;;;;;;3.45;65.25;94886.97;5134200;27;20177;-75
2021/01/22 05:03:33;;;;;;;32.00;16.13;;;;;;;2.95;66.97;94882.81;5133274;27;20239;-73
2021/01/22 05:05:59;;;;;;;33.23;16.53;;;;;;;3.13;66.50;94901.13;5134006;27;20660;-74
2021/01/22 05:08:25;;;;;;;33.40;18.77;;;;;;;2.95;67.62;94893.34;5135064;27;20250;-74
2021/01/22 05:10:50;;;;;;;31.63;16.97;;;;;;;3.05;66.94;94888.66;5116463;27;20270;-73
2021/01/22 05:13:16;;;;;;;28.60;16.13;;;;;;;2.96;66.52;94863.25;5133629;27;20553;-76
2021/01/22 05:15:41;;;;;;;30.07;15.60;;;;;;;2.76;67.93;94870.53;5134715;27;20169;-73
2021/01/22 05:18:10;;;;;;;34.30;16.60;;;;;;;2.71;67.86;94864.59;5134931;27;20169;-77
2021/01/22 05:20:40;;;;;;;26.35;13.07;;;;;;;3.31;67.59;94886.25;5134751;27;20176;-77
2021/01/22 05:23:07;;;;;;;33.83;16.08;;;;;;;2.92;68.07;94894.75;5134887;27;20541;-73
2021/01/22 05:25:33;;;;;;;23.13;13.55;;;;;;;3.41;67.33;94874.66;5133392;27;20218;-74
2021/01/22 05:27:59;;;;;;;27.10;14.30;;;;;;;3.44;66.16;94882.75;5133464;27;20173;-74
2021/01/22 05:30:26;;;;;;;23.40;13.50;;;;;;;3.31;67.24;94890.72;5134392;27;20680;-73
2021/01/22 05:32:52;;;;;;;26.33;14.75;;;;;;;3.39;66.62;94887.38;5133482;27;20239;-74
2021/01/22 05:35:30;;;;;;;28.00;15.63;;;;;;;3.06;67.35;94881.50;5134258;27;20184;-74
2021/01/22 05:37:55;;;;;;;29.00;12.80;;;;;;;3.28;66.90;94871.00;5134377;27;20216;-74
2021/01/22 05:40:22;;;;;;;28.60;15.50;;;;;;;3.28;66.55;94870.22;5134288;27;20180;-74
2021/01/22 05:42:55;;;;;;;25.08;12.55;;;;;;;3.27;66.83;94869.44;5134289;27;20206;-74
2021/01/22 05:45:43;;;;;;;24.20;14.02;;;;;;;3.31;67.11;94869.59;5134084;27;20176;-74
2021/01/22 05:48:22;;;;;;;25.77;13.75;;;;;;;2.92;68.76;94884.19;5134609;27;20256;-73
2021/01/22 05:50:49;;;;;;;29.77;13.20;;;;;;;2.69;69.68;94880.69;5133922;27;20250;-73
2021/01/22 05:53:15;;;;;;;28.60;14.80;;;;;;;2.80;69.21;94870.72;5134122;27;20177;-73
2021/01/22 05:55:40;;;;;;;25.73;13.57;;;;;;;2.89;69.02;94856.53;5133976;27;20223;-73
2021/01/22 05:58:06;;;;;;;30.63;13.93;;;;;;;3.00;68.29;94862.38;5134086;27;20230;-74
2021/01/22 06:00:32;;;;;;;25.93;12.47;;;;;;;3.04;68.20;94868.63;5132588;27;20165;-74
2021/01/22 06:02:57;;;;;;;27.07;12.83;;;;;;;2.86;68.48;94858.97;5133977;27;20169;-75
2021/01/22 06:05:23;;;;;;;25.43;13.90;;;;;;;2.79;69.11;94877.06;5133775;27;20172;-75
2021/01/22 06:08:03;;;;;;;26.37;13.77;;;;;;;2.82;69.53;94877.25;5133821;27;20161;-74
2021/01/22 06:10:29;;;;;;;24.52;14.20;;;;;;;2.98;68.74;94877.72;5132559;27;20249;-74
2021/01/22 06:12:55;;;;;;;26.90;13.63;;;;;;;3.21;68.13;94873.28;5132293;27;20585;-73
2021/01/22 06:15:23;;;;;;;25.83;13.10;;;;;;;2.90;68.65;94868.63;5133465;27;20165;-74
2021/01/22 06:17:52;;;;;;;24.58;13.30;;;;;;;3.22;67.97;94868.78;5133741;27;20272;-75
2021/01/22 06:20:20;;;;;;;23.77;12.82;;;;;;;3.14;68.27;94878.16;5133486;27;20173;-75
2021/01/22 06:23:12;;;;;;;29.67;14.45;;;;;;;3.02;69.28;94872.63;5133496;27;20180;-75
2021/01/22 06:25:38;;;;;;;27.33;13.38;;;;;;;3.28;68.72;94871.00;5133406;27;20173;-74
2021/01/22 06:28:04;;;;;;;27.13;14.15;;;;;;;3.34;68.56;94879.56;5133647;27;20173;-75
2021/01/22 06:30:34;;;;;;;41.42;19.75;;;;;;;3.45;67.77;94859.78;5133204;27;20326;-73
2021/01/22 06:33:00;;;;;;;34.30;17.60;;;;;;;3.49;67.47;94865.25;5133467;27;20184;-76
2021/01/22 06:35:27;;;;;;;38.15;18.42;;;;;;;3.81;67.13;94859.69;5133117;27;20184;-74
2021/01/22 06:37:56;;;;;;;40.30;18.77;;;;;;;3.68;67.25;94874.53;5133257;27;20213;-73
2021/01/22 06:40:21;;;;;;;38.35;19.98;;;;;;;3.97;66.69;94849.53;5131840;27;20173;-73
2021/01/22 06:42:47;;;;;;;40.97;19.73;;;;;;;3.87;67.03;94866.44;5133212;27;20161;-73
2021/01/22 06:45:13;;;;;;;37.20;19.03;;;;;;;3.67;67.67;94866.91;5114664;27;20718;-74
2021/01/22 06:47:38;;;;;;;33.80;18.50;;;;;;;3.54;67.57;94873.06;5132791;27;20216;-74
2021/01/22 06:50:24;;;;;;;37.67;18.73;;;;;;;3.53;68.07;94874.88;5131919;27;20184;-73
2021/01/22 06:53:04;;;;;;;38.28;20.88;;;;;;;3.39;68.10;94871.53;5131712;27;20169;-73
2021/01/22 06:55:30;;;;;;;36.05;20.08;;;;;;;3.80;67.05;94854.72;5132042;27;20183;-74
2021/01/22 06:58:27;;;;;;;36.47;18.17;;;;;;;3.70;68.27;94869.75;5133036;27;20168;-76
2021/01/22 07:00:57;;;;;;;33.85;18.17;;;;;;;3.84;67.31;94856.47;5131434;27;20207;-74
2021/01/22 07:03:37;;;;;;;37.33;21.30;;;;;;;4.26;66.38;94846.38;5132978;27;20569;-73
2021/01/22 07:06:04;;;;;;;43.38;20.77;;;;;;;4.18;66.52;94834.69;5132699;27;20169;-74
2021/01/22 07:08:51;;;;;;;36.95;17.73;;;;;;;4.52;65.48;94838.53;5132836;27;20180;-74
2021/01/22 07:11:17;;;;;;;41.00;19.13;;;;;;;4.57;65.39;94840.28;5132873;27;20668;-75
2021/01/22 07:13:44;;;;;;;32.87;18.37;;;;;;;4.67;65.04;94840.75;5132750;27;20169;-74
2021/01/22 07:16:11;;;;;;;39.47;21.85;;;;;;;4.61;65.39;94851.81;5132292;27;20701;-74
2021/01/22 07:18:52;;;;;;;50.75;27.15;;;;;;;4.80;65.41;94833.00;5132781;27;20177;-74
2021/01/22 07:21:30;;;;;;;40.28;21.40;;;;;;;4.61;66.30;94843.88;5132556;27;20259;-75
2021/01/22 07:24:00;;;;;;;36.88;18.42;;;;;;;4.84;65.14;94837.38;5132513;27;20177;-75
2021/01/22 07:26:35;;;;;;;46.45;19.38;;;;;;;4.57;66.17;94853.50;5132505;27;20177;-74
2021/01/22 07:29:13;;;;;;;31.35;16.38;;;;;;;4.55;65.63;94850.38;5132123;27;20168;-74
2021/01/22 07:32:01;;;;;;;29.35;15.50;;;;;;;4.64;65.56;94856.47;5131352;27;20173;-74
2021/01/22 07:34:46;;;;;;;35.20;18.88;;;;;;;4.55;65.77;94853.81;5132301;27;20188;-78
2021/01/22 07:37:12;;;;;;;44.97;22.00;;;;;;;4.42;66.58;94866.03;5132378;27;20251;-75
2021/01/22 07:39:38;;;;;;;54.92;25.88;;;;;;;4.69;66.16;94854.44;5132365;27;20181;-76
2021/01/22 07:42:08;;;;;;;54.97;27.33;;;;;;;4.61;65.47;94847.28;5132601;27;20238;-73
2021/01/22 07:44:35;;;;;;;51.75;26.27;;;;;;;4.43;65.95;94864.16;5131931;27;20572;-73
2021/01/22 07:47:00;;;;;;;62.80;30.27;;;;;;;4.10;66.73;94843.38;5132352;27;20210;-76
2021/01/22 07:49:26;;;;;;;65.00;31.70;;;;;;;4.16;66.32;94852.72;5130322;28;20208;-74
2021/01/22 07:51:51;;;;;;;67.50;32.17;;;;;;;4.39;65.81;94850.81;5132136;27;20168;-74
2021/01/22 07:54:17;;;;;;;64.03;32.73;;;;;;;4.33;66.28;94857.31;5132033;27;20173;-75
2021/01/22 07:56:42;;;;;;;74.63;35.63;;;;;;;4.51;65.87;94839.63;5132252;27;20165;-74
2021/01/22 07:59:09;;;;;;;57.10;30.00;;;;;;;4.58;64.85;94847.09;5131730;27;20613;-74
2021/01/22 08:01:38;;;;;;;57.05;30.83;;;;;;;4.68;64.77;94837.03;5130995;28;20157;-74
2021/01/22 08:04:04;;;;;;;58.20;31.08;;;;;;;4.83;64.85;94827.09;5131917;27;20181;-75
2021/01/22 08:06:45;;;;;;;67.10;33.03;;;;;;;4.57;65.33;94841.03;5131206;27;20349;-74
2021/01/22 08:09:14;;;;;;;59.85;30.00;;;;;;;4.64;65.83;94825.50;5134705;27;20720;-74
2021/01/22 08:11:40;;;;;;;58.78;26.48;;;;;;;4.85;64.05;94838.91;5136346;27;20198;-73
2021/01/22 08:14:06;;;;;;;54.45;26.88;;;;;;;4.99;64.26;94829.00;5135678;27;20176;-73
2021/01/22 08:16:31;;;;;;;64.60;30.57;;;;;;;5.09;64.15;94849.06;5136108;27;20188;-74
2021/01/22 08:18:57;;;;;;;56.47;29.53;;;;;;;4.90;64.13;94828.19;5117952;27;20173;-73
2021/01/22 08:21:22;;;;;;;49.40;27.90;;;;;;;5.04;64.00;94857.16;5135784;27;20552;-74
2021/01/22 08:23:48;;;;;;;53.87;28.93;;;;;;;5.28;63.12;94843.47;5117849;27;20230;-74
2021/01/22 08:26:14;;;;;;;59.70;29.77;;;;;;;5.11;64.12;94827.59;5135631;27;20169;-74
2021/01/22 08:28:40;;;;;;;61.80;30.23;;;;;;;4.98;65.29;94859.16;5135632;27;20594;-75
2021/01/22 08:31:11;;;;;;;43.07;23.73;;;;;;;4.90;64.60;94836.13;5135508;27;20220;-73
2021/01/22 08:33:37;;;;;;;52.28;25.42;;;;;;;5.23;63.91;94841.75;5134653;27;20242;-74
2021/01/22 08:36:04;;;;;;;53.37;23.67;;;;;;;5.23;64.27;94830.41;5135507;27;20272;-74
2021/01/22 08:38:30;;;;;;;37.65;18.75;;;;;;;5.35;64.31;94830.53;5117357;27;20227;-74
2021/01/22 08:40:55;;;;;;;38.67;18.73;;;;;;;5.50;63.64;94839.84;5135367;27;20637;-73
2021/01/22 08:43:21;;;;;;;43.63;22.17;;;;;;;5.40;64.32;94833.03;5151124;27;20173;-74
2021/01/22 08:46:05;;;;;;;43.03;21.87;;;;;;;5.36;64.31;94815.44;5135475;27;20172;-75
2021/01/22 08:48:30;;;;;;;35.08;17.38;;;;;;;5.56;63.45;94817.44;5135582;27;20195;-74
2021/01/22 08:51:01;;;;;;;32.73;17.80;;;;;;;5.67;63.17;94817.88;5133866;27;20634;-73
2021/01/22 08:53:27;;;;;;;39.00;17.80;;;;;;;5.86;62.69;94826.25;5135840;27;20525;-74
2021/01/22 08:56:11;;;;;;;30.47;17.23;;;;;;;5.90;62.84;94811.28;5133840;27;20203;-74
2021/01/22 08:59:06;;;;;;;42.90;19.00;;;;;;;5.82;62.32;94809.41;5135395;27;20165;-75
2021/01/22 09:01:50;;;;;;;35.15;19.02;;;;;;;5.73;63.27;94812.09;5134949;27;20180;-73
2021/01/22 09:04:26;;;;;;;36.65;20.48;;;;;;;5.66;63.17;94805.72;5134812;27;20173;-74
2021/01/22 09:07:01;;;;;;;40.17;18.90;;;;;;;5.74;63.42;94802.28;5135104;27;20169;-73
2021/01/22 09:09:46;;;;;;;41.60;19.70;;;;;;;5.96;62.80;94803.97;5134781;27;20489;-75
2021/01/22 09:12:19;;;;;;;37.17;17.50;;;;;;;5.95;63.66;94808.50;5135098;27;20941;-76
2021/01/22 09:14:55;;;;;;;35.63;16.00;;;;;;;5.97;63.31;94806.28;5134818;27;20415;-73
2021/01/22 09:17:21;;;;;;;27.33;15.17;;;;;;;6.25;62.45;94808.53;5133933;27;20201;-74
2021/01/22 09:20:00;;;;;;;35.27;14.27;;;;;;;6.15;62.36;94801.69;5133984;27;20460;-75
2021/01/22 09:22:32;;;;;;;33.13;14.70;;;;;;;6.33;62.10;94799.75;5135034;27;20403;-75
2021/01/22 09:25:03;;;;;;;23.90;14.00;;;;;;;6.42;61.96;94789.88;5134566;27;20446;-75
2021/01/22 09:27:28;;;;;;;22.80;13.37;;;;;;;6.54;61.71;94795.28;5134567;27;20493;-74
2021/01/22 09:29:54;;;;;;;37.30;16.73;;;;;;;6.25;62.09;94785.44;5134360;27;20562;-75
2021/01/22 09:32:19;;;;;;;30.90;16.13;;;;;;;6.57;62.11;94780.59;5134811;27;20221;-74
2021/01/22 09:34:45;;;;;;;25.20;13.73;;;;;;;6.70;61.23;94784.09;5134624;27;20176;-76
2021/01/22 09:37:11;;;;;;;25.53;13.20;;;;;;;6.62;60.88;94785.69;5134400;27;20304;-74
2021/01/22 09:39:36;;;;;;;25.53;13.40;;;;;;;6.76;60.73;94769.53;5134407;27;20167;-75
2021/01/22 09:42:02;;;;;;;29.23;13.47;;;;;;;6.97;59.46;94765.03;5134454;27;20204;-75
2021/01/22 09:44:27;;;;;;;25.13;13.23;;;;;;;7.05;59.30;94752.78;5134050;27;20156;-75
2021/01/22 09:46:53;;;;;;;26.47;15.13;;;;;;;7.19;58.86;94758.59;5134321;27;20194;-73
2021/01/22 09:49:18;;;;;;;27.43;13.37;;;;;;;6.91;59.62;94782.25;5134415;27;20249;-75
2021/01/22 09:51:44;;;;;;;24.20;14.00;;;;;;;7.02;59.47;94748.91;5134933;27;20175;-76
2021/01/22 09:54:09;;;;;;;35.23;17.27;;;;;;;6.94;60.04;94728.50;5134452;27;20164;-74
2021/01/22 09:56:38;;;;;;;56.20;21.80;;;;;;;7.04;60.03;94741.38;5133984;27;20184;-75
2021/01/22 09:59:05;;;;;;;28.77;14.17;;;;;;;7.12;58.48;94721.16;5132676;27;20244;-75
2021/01/22 10:01:32;;;;;;;24.37;11.33;;;;;;;7.23;58.33;94727.59;5133912;27;20419;-73
2021/01/22 10:03:57;;;;;;;27.90;14.07;;;;;;;7.11;59.13;94715.06;5134209;27;20813;-74
2021/01/22 10:06:22;;;;;;;26.33;14.10;;;;;;;7.23;58.07;94716.22;5133909;27;20414;-75
2021/01/22 10:08:48;;;;;;;24.13;12.03;;;;;;;7.33;57.96;94719.22;5134206;27;20256;-75
2021/01/22 10:11:14;;;;;;;25.10;12.57;;;;;;;7.48;57.40;94706.44;5133733;27;20628;-74
2021/01/22 10:13:39;;;;;;;25.90;14.23;;;;;;;7.50;57.51;94701.56;5115327;27;20645;-75
2021/01/22 10:16:05;;;;;;;24.43;13.17;;;;;;;7.61;57.41;94703.47;5133627;27;20161;-74
2021/01/22 10:18:30;;;;;;;25.50;11.50;;;;;;;7.48;57.89;94723.16;5133511;27;20265;-73
2021/01/22 10:20:56;;;;;;;15.83;9.60;;;;;;;7.45;57.37;94702.53;5133859;27;20168;-74
2021/01/22 10:23:21;;;;;;;23.57;11.90;;;;;;;7.67;57.03;94723.41;5133645;27;20176;-75
2021/01/22 10:25:47;;;;;;;24.40;11.17;;;;;;;7.59;57.13;94683.66;5133927;27;20177;-75
2021/01/22 10:28:12;;;;;;;24.97;11.43;;;;;;;7.85;56.48;94696.63;5133380;27;20172;-74
2021/01/22 10:30:38;;;;;;;23.43;12.87;;;;;;;7.98;56.21;94714.16;5132489;27;20235;-75
2021/01/22 10:33:03;;;;;;;33.43;12.43;;;;;;;7.97;56.82;94707.28;5133283;27;20641;-75
2021/01/22 10:35:29;;;;;;;28.30;12.83;;;;;;;8.16;56.18;94701.41;5133520;27;20169;-74
2021/01/22 10:37:54;;;;;;;32.80;13.43;;;;;;;8.13;55.10;94700.16;5133313;27;20569;-73
2021/01/22 10:40:20;;;;;;;31.83;13.23;;;;;;;8.04;56.41;94691.53;5133048;27;20169;-74
2021/01/22 10:42:45;;;;;;;31.90;13.87;;;;;;;8.12;56.02;94703.16;5133376;27;20230;-72
2021/01/22 10:45:11;;;;;;;36.77;16.00;;;;;;;8.29;55.55;94686.19;5132917;27;20169;-73
2021/01/22 10:47:37;;;;;;;46.57;17.67;;;;;;;8.33;55.20;94689.75;5133118;27;20255;-76
2021/01/22 10:50:04;;;;;;;48.23;18.50;;;;;;;8.28;55.60;94663.38;5132898;27;20519;-75
2021/01/22 10:52:30;;;;;;;38.10;19.43;;;;;;;8.65;54.69;94664.09;5131880;27;20201;-72
2021/01/22 10:54:55;;;;;;;41.23;20.47;;;;;;;8.65;54.01;94661.44;5132903;27;20451;-73
2021/01/22 10:57:21;;;;;;;43.40;21.03;;;;;;;8.60;54.67;94645.72;5133189;27;20196;-74
2021/01/22 10:59:46;;;;;;;46.97;22.80;;;;;;;8.64;54.73;94652.69;5132723;27;20200;-74
2021/01/22 11:02:12;;;;;;;55.63;24.73;;;;;;;8.74;54.68;94624.78;5133007;27;20180;-73
2021/01/22 11:04:40;;;;;;;65.40;28.77;;;;;;;8.61;54.51;94637.38;5133032;27;20179;-74
2021/01/22 11:07:06;;;;;;;62.10;31.63;;;;;;;8.84;53.26;94618.22;5131651;27;20169;-75
2021/01/22 11:09:32;;;;;;;73.57;32.67;;;;;;;8.59;53.96;94607.69;5131060;27;20454;-74
2021/01/22 11:11:57;;;;;;;62.13;28.30;;;;;;;8.50;53.74;94615.00;5132616;27;20196;-74
2021/01/22 11:14:23;;;;;;;60.87;28.40;;;;;;;8.80;53.47;94596.03;5132726;27;20173;-74
2021/01/22 11:16:48;;;;;;;55.73;27.00;;;;;;;8.79;53.25;94600.59;5132493;27;20176;-74
2021/01/22 11:19:13;;;;;;;56.73;28.23;;;;;;;8.91;53.97;94602.41;5132701;27;20577;-74
2021/01/22 11:21:39;;;;;;;63.80;30.53;;;;;;;8.99;53.08;94599.59;5132382;27;20204;-74
2021/01/22 11:24:05;;;;;;;59.63;29.80;;;;;;;9.09;53.62;94587.69;5132656;27;20633;-74
2021/01/22 11:26:30;;;;;;;59.83;29.80;;;;;;;8.95;53.45;94593.41;5132252;27;20165;-74